Time;durP1;ratioP1;P1;durP2;ratioP2;P2;SDS_P1;SDS_P2;PMS_P1;PMS_P2;Temp;Humidity;BMP_temperature;BMP_pressure;BME280_temperature;BME280_humidity;BME280_pressure;Samples;Min_cycle;Max_cycle;Signal;HPM_P1;HPM_P2
2023/03/16 00:01:38;;;;;;;3.62;1.83;;;3.20;99.90;;;;;;7283622;32;20137;-55
2023/03/16 00:05:39;;;;;;;8.07;2.08;;;3.10;99.90;;;;;;7279114;32;20224;-55
2023/03/16 00:09:41;;;;;;;7.97;2.10;;;3.10;99.90;;;;;;7284494;32;20108;-55
2023/03/16 00:13:43;;;;;;;4.37;1.77;;;3.00;99.90;;;;;;7281025;32;20127;-55
2023/03/16 00:17:48;;;;;;;4.50;2.30;;;3.00;99.90;;;;;;7285135;32;20112;-54
2023/03/16 00:21:50;;;;;;;6.57;1.95;;;3.00;99.90;;;;;;7280085;32;20243;-55
2023/03/16 00:26:01;;;;;;;3.95;2.08;;;3.10;99.90;;;;;;7290271;32;20162;-55
2023/03/16 00:30:03;;;;;;;5.95;1.90;;;3.10;99.90;;;;;;7284177;32;20198;-55
2023/03/16 00:34:05;;;;;;;6.68;2.05;;;3.10;99.90;;;;;;7281344;32;20825;-55
2023/03/16 00:38:07;;;;;;;5.10;2.15;;;3.10;99.90;;;;;;7287187;32;20108;-55
2023/03/16 00:42:10;;;;;;;7.25;2.08;;;3.10;99.90;;;;;;7286829;32;20112;-55
2023/03/16 00:46:15;;;;;;;7.87;2.10;;;3.00;99.90;;;;;;7278379;32;20198;-55
2023/03/16 00:50:21;;;;;;;5.72;1.70;;;3.10;99.90;;;;;;7277085;32;20108;-55
2023/03/16 00:54:22;;;;;;;6.82;1.90;;;3.10;99.90;;;;;;7264174;32;20148;-55
2023/03/16 00:58:24;;;;;;;4.68;2.12;;;3.20;99.90;;;;;;7287004;32;20133;-55
2023/03/16 01:02:26;;;;;;;3.58;1.95;;;3.20;99.90;;;;;;7281160;32;20442;-54
2023/03/16 01:06:27;;;;;;;4.12;1.70;;;3.20;99.90;;;;;;7279570;32;20503;-55
2023/03/16 01:10:29;;;;;;;3.75;1.83;;;3.20;99.90;;;;;;7275966;32;20199;-55
2023/03/16 01:14:33;;;;;;;5.15;1.77;;;3.20;99.90;;;;;;7280098;32;20200;-55
2023/03/16 01:18:35;;;;;;;4.97;1.95;;;3.20;99.90;;;;;;7281951;32;20112;-55
2023/03/16 01:22:37;;;;;;;5.65;1.85;;;3.20;99.90;;;;;;7275652;32;20676;-53
2023/03/16 01:26:39;;;;;;;5.12;1.87;;;3.40;99.90;;;;;;7278464;32;20157;-54
2023/03/16 01:30:42;;;;;;;3.20;1.77;;;3.40;99.90;;;;;;7279359;32;20653;-54
2023/03/16 01:34:44;;;;;;;4.35;1.62;;;3.40;99.90;;;;;;7280056;32;20253;-54
2023/03/16 01:38:46;;;;;;;3.78;1.90;;;3.50;99.90;;;;;;7279459;32;20109;-54
2023/03/16 01:42:59;;;;;;;3.30;2.20;;;3.40;99.90;;;;;;7279304;32;20161;-54
2023/03/16 01:47:01;;;;;;;6.55;1.98;;;3.40;99.90;;;;;;7281296;32;20225;-54
2023/03/16 01:51:10;;;;;;;3.40;1.70;;;3.40;99.90;;;;;;7276901;32;20108;-54
2023/03/16 01:55:12;;;;;;;2.00;1.37;;;3.40;99.90;;;;;;7278660;32;20103;-55
2023/03/16 01:59:16;;;;;;;4.35;1.70;;;3.40;99.90;;;;;;7263470;32;20180;-54
2023/03/16 02:03:20;;;;;;;3.92;1.52;;;3.50;99.90;;;;;;7277807;32;20549;-54
2023/03/16 02:07:24;;;;;;;4.15;1.75;;;3.50;99.90;;;;;;7283569;32;20203;-54
2023/03/16 02:11:27;;;;;;;3.75;1.67;;;3.50;99.90;;;;;;7288071;32;20175;-54
2023/03/16 02:15:29;;;;;;;3.10;2.22;;;3.60;99.90;;;;;;7287123;32;20175;-55
2023/03/16 02:19:43;;;;;;;5.20;1.87;;;3.50;99.90;;;;;;7289461;32;20112;-54
2023/03/16 02:23:46;;;;;;;3.47;1.58;;;3.60;99.90;;;;;;7286265;32;20795;-54
2023/03/16 02:28:06;;;;;;;6.45;1.80;;;3.60;99.90;;;;;;7286471;32;20141;-54
2023/03/16 02:32:10;;;;;;;5.00;1.65;;;3.50;99.90;;;;;;7290667;32;20214;-54
2023/03/16 02:36:16;;;;;;;2.65;1.27;;;3.40;99.90;;;;;;7284634;32;20242;-54
2023/03/16 02:40:22;;;;;;;3.83;1.65;;;3.50;99.90;;;;;;7282471;32;20130;-54
2023/03/16 02:44:32;;;;;;;5.28;1.60;;;3.60;99.90;;;;;;7270477;32;20119;-54
2023/03/16 02:48:46;;;;;;;3.37;1.73;;;3.50;99.90;;;;;;7282305;32;20438;-55
2023/03/16 02:52:48;;;;;;;7.57;1.80;;;3.50;99.90;;;;;;7285850;32;20388;-54
2023/03/16 02:56:50;;;;;;;5.05;1.52;;;3.60;99.90;;;;;;7286731;32;20191;-54
2023/03/16 03:00:52;;;;;;;2.50;1.50;;;3.60;99.90;;;;;;7282611;32;20139;-53
2023/03/16 03:04:53;;;;;;;3.70;1.60;;;3.60;99.90;;;;;;7285098;32;20136;-54
2023/03/16 03:08:55;;;;;;;6.00;1.95;;;3.60;99.90;;;;;;7290727;32;20736;-54
2023/03/16 03:12:57;;;;;;;3.83;1.33;;;3.60;99.90;;;;;;7279243;32;20462;-54
2023/03/16 03:16:59;;;;;;;3.97;1.70;;;3.60;99.90;;;;;;7277801;32;20226;-54
2023/03/16 03:21:01;;;;;;;5.62;1.77;;;3.60;99.90;;;;;;7280306;32;20108;-54
2023/03/16 03:25:02;;;;;;;4.28;1.45;;;3.50;99.90;;;;;;7287938;32;20218;-54
2023/03/16 03:29:04;;;;;;;4.37;2.03;;;3.50;99.90;;;;;;7285121;32;20214;-54
2023/03/16 03:33:06;;;;;;;3.28;1.55;;;3.60;99.90;;;;;;7295690;32;20133;-54
2023/03/16 03:37:07;;;;;;;4.60;1.55;;;3.60;99.90;;;;;;7291170;32;20130;-54
2023/03/16 03:41:09;;;;;;;4.70;1.42;;;3.60;99.90;;;;;;7286438;32;20140;-54
2023/03/16 03:45:12;;;;;;;4.32;1.92;;;3.60;99.90;;;;;;7286507;32;20104;-54
2023/03/16 03:49:14;;;;;;;3.50;2.00;;;3.60;99.90;;;;;;7285573;32;20218;-54
2023/03/16 03:53:17;;;;;;;4.30;1.70;;;3.70;99.90;;;;;;7287637;32;20176;-54
2023/03/16 03:57:18;;;;;;;3.78;1.83;;;3.60;99.90;;;;;;7287978;32;20107;-54
2023/03/16 04:01:22;;;;;;;7.12;1.87;;;3.60;99.90;;;;;;7287400;32;20233;-54
2023/03/16 04:05:28;;;;;;;3.80;1.42;;;3.60;99.90;;;;;;7288389;32;20128;-54
2023/03/16 04:09:32;;;;;;;2.78;1.65;;;3.60;99.90;;;;;;7285963;32;20109;-54
2023/03/16 04:13:34;;;;;;;5.15;1.95;;;3.60;99.90;;;;;;7276814;32;20218;-54
2023/03/16 04:17:36;;;;;;;5.72;1.67;;;3.60;99.90;;;;;;7279989;32;20838;-54
2023/03/16 04:21:38;;;;;;;2.30;1.45;;;3.50;99.90;;;;;;7281266;32;20126;-54
2023/03/16 04:25:39;;;;;;;3.25;1.80;;;3.60;99.90;;;;;;7276193;32;20310;-54
2023/03/16 04:29:42;;;;;;;3.70;1.58;;;3.50;99.90;;;;;;7276625;32;20261;-54
2023/03/16 04:33:44;;;;;;;2.90;1.80;;;3.60;99.90;;;;;;7280054;32;20292;-54
2023/03/16 04:37:46;;;;;;;6.30;2.08;;;3.60;99.90;;;;;;7279716;32;20122;-54
2023/03/16 04:41:48;;;;;;;4.40;1.95;;;3.60;99.90;;;;;;7277587;32;20200;-54
2023/03/16 04:45:49;;;;;;;4.93;2.42;;;3.50;99.90;;;;;;7279942;32;20120;-54
2023/03/16 04:49:52;;;;;;;6.18;2.40;;;3.50;99.90;;;;;;7277305;32;20248;-54
2023/03/16 04:53:54;;;;;;;4.07;2.17;;;3.50;99.90;;;;;;7274667;32;20611;-54
2023/03/16 04:57:56;;;;;;;4.22;2.22;;;3.60;99.90;;;;;;7280721;32;20227;-54
2023/03/16 05:01:57;;;;;;;3.47;1.95;;;3.60;99.90;;;;;;7276587;32;20126;-54
2023/03/16 05:05:59;;;;;;;4.78;2.30;;;3.60;99.90;;;;;;7285986;32;20172;-54
2023/03/16 05:10:02;;;;;;;4.60;2.30;;;3.70;99.90;;;;;;7294190;32;20157;-54
2023/03/16 05:14:04;;;;;;;7.03;2.78;;;3.70;99.90;;;;;;7288740;32;20519;-54
2023/03/16 05:18:06;;;;;;;7.82;3.10;;;3.80;99.90;;;;;;7286847;32;20124;-54
2023/03/16 05:22:08;;;;;;;8.35;2.92;;;3.80;99.90;;;;;;7284852;32;20232;-54
2023/03/16 05:26:12;;;;;;;5.68;2.65;;;3.80;99.90;;;;;;7282888;32;20179;-58
2023/03/16 05:30:17;;;;;;;4.93;2.40;;;3.80;99.90;;;;;;7286110;32;20534;-54
2023/03/16 05:34:19;;;;;;;5.45;3.03;;;3.80;99.90;;;;;;7289779;32;20137;-55
2023/03/16 05:38:21;;;;;;;5.65;2.85;;;3.80;99.90;;;;;;7280298;32;20124;-54
2023/03/16 05:42:25;;;;;;;4.65;2.90;;;3.80;99.90;;;;;;7289443;32;20327;-54
2023/03/16 05:46:27;;;;;;;6.95;3.37;;;3.90;99.90;;;;;;7281966;32;20169;-55
2023/03/16 05:50:29;;;;;;;6.00;3.58;;;3.90;99.90;;;;;;7294247;32;20145;-56
2023/03/16 05:54:32;;;;;;;5.72;3.70;;;3.90;99.90;;;;;;7290680;32;20213;-56
2023/03/16 05:58:33;;;;;;;5.53;3.42;;;3.90;99.90;;;;;;7287805;32;20112;-56
2023/03/16 06:02:36;;;;;;;6.35;4.00;;;3.90;99.90;;;;;;7288061;32;20116;-55
2023/03/16 06:06:38;;;;;;;7.28;3.55;;;3.90;99.90;;;;;;7274338;32;20185;-55
2023/03/16 06:10:40;;;;;;;5.40;3.60;;;4.00;99.90;;;;;;7277608;32;20159;-56
2023/03/16 06:14:41;;;;;;;6.72;3.37;;;4.00;99.90;;;;;;7276952;32;20184;-55
2023/03/16 06:18:43;;;;;;;6.93;3.17;;;4.00;99.90;;;;;;7275706;32;20775;-56
2023/03/16 06:22:45;;;;;;;4.70;3.37;;;4.10;99.90;;;;;;7281832;32;20549;-55
2023/03/16 06:26:46;;;;;;;7.03;3.55;;;4.10;99.90;;;;;;7273116;32;20159;-56
2023/03/16 06:30:51;;;;;;;5.10;3.30;;;4.10;99.90;;;;;;7270771;32;20112;-58
2023/03/16 06:34:53;;;;;;;6.53;3.40;;;4.20;99.90;;;;;;7271625;32;20149;-56
2023/03/16 06:38:55;;;;;;;4.75;2.97;;;4.30;99.90;;;;;;7274555;32;20167;-57
2023/03/16 06:42:56;;;;;;;4.80;3.00;;;4.20;99.90;;;;;;7282417;32;20173;-55
2023/03/16 06:46:58;;;;;;;7.00;3.30;;;4.30;99.90;;;;;;7277841;32;20167;-56
2023/03/16 06:51:00;;;;;;;5.35;3.20;;;4.50;99.90;;;;;;7280180;32;20748;-56
2023/03/16 06:55:02;;;;;;;4.93;2.90;;;4.70;99.90;;;;;;7287797;32;20133;-56
2023/03/16 06:59:03;;;;;;;5.35;3.30;;;4.80;99.90;;;;;;7275094;32;20112;-55
2023/03/16 07:03:05;;;;;;;7.78;3.12;;;5.00;99.90;;;;;;7283661;32;20103;-56
2023/03/16 07:07:07;;;;;;;7.12;3.28;;;5.10;99.90;;;;;;7281101;32;20108;-56
2023/03/16 07:11:09;;;;;;;7.55;3.47;;;5.10;99.90;;;;;;7285143;32;20187;-55
2023/03/16 07:15:11;;;;;;;5.95;3.20;;;5.00;99.90;;;;;;7257641;32;20372;-56
2023/03/16 07:19:13;;;;;;;4.60;2.97;;;5.10;99.90;;;;;;7265748;32;20107;-55
2023/03/16 07:23:15;;;;;;;4.35;2.72;;;5.00;99.90;;;;;;7284073;32;20707;-55
2023/03/16 07:27:16;;;;;;;6.47;3.40;;;5.10;99.90;;;;;;7275466;32;20500;-55
2023/03/16 07:31:18;;;;;;;7.53;3.10;;;5.20;99.90;;;;;;7275177;32;20809;-57
2023/03/16 07:35:20;;;;;;;5.07;3.60;;;5.30;99.90;;;;;;7275635;32;20130;-57
2023/03/16 07:39:22;;;;;;;4.72;3.37;;;5.30;99.90;;;;;;7278120;32;20230;-55
2023/03/16 07:43:24;;;;;;;5.65;3.10;;;5.30;99.90;;;;;;7282243;32;20231;-57
2023/03/16 07:47:27;;;;;;;8.48;3.00;;;5.40;99.90;;;;;;7273165;32;20733;-57
2023/03/16 07:51:29;;;;;;;8.02;3.78;;;5.40;99.90;;;;;;7277090;32;20167;-57
2023/03/16 07:55:30;;;;;;;5.10;2.97;;;5.30;99.90;;;;;;7275049;32;20104;-57
2023/03/16 07:59:32;;;;;;;6.12;2.97;;;5.40;99.90;;;;;;7274076;32;20108;-58
2023/03/16 08:03:33;;;;;;;5.18;4.03;;;5.40;99.90;;;;;;7274472;32;20112;-56
2023/03/16 08:07:35;;;;;;;6.28;3.15;;;5.50;99.90;;;;;;7276434;32;20171;-56
2023/03/16 08:11:37;;;;;;;7.47;3.05;;;5.50;99.90;;;;;;7281191;32;20116;-57
2023/03/16 08:15:39;;;;;;;6.80;3.47;;;5.50;99.90;;;;;;7278820;32;20139;-57
2023/03/16 08:19:41;;;;;;;6.72;3.50;;;5.60;99.90;;;;;;7276573;32;20231;-57
2023/03/16 08:23:48;;;;;;;5.62;3.25;;;5.60;99.90;;;;;;7286794;32;20573;-56
2023/03/16 08:27:49;;;;;;;8.93;3.50;;;5.60;99.90;;;;;;7279733;32;20112;-57
2023/03/16 08:31:55;;;;;;;7.07;3.70;;;5.80;99.90;;;;;;7285875;32;20226;-56
2023/03/16 08:35:57;;;;;;;6.28;3.28;;;5.80;99.90;;;;;;7280592;32;20142;-57
2023/03/16 08:39:59;;;;;;;7.35;3.92;;;6.10;99.90;;;;;;7285322;32;20115;-57
2023/03/16 08:44:02;;;;;;;7.30;3.47;;;6.10;99.90;;;;;;7287670;32;20126;-57
2023/03/16 08:48:04;;;;;;;5.60;4.00;;;6.20;99.90;;;;;;7273711;32;20223;-58
2023/03/16 08:52:09;;;;;;;8.57;3.80;;;6.20;99.90;;;;;;7281356;32;20130;-56
2023/03/16 08:56:13;;;;;;;6.75;3.28;;;6.20;99.90;;;;;;7282064;32;20137;-57
2023/03/16 09:00:16;;;;;;;10.02;4.20;;;6.40;99.90;;;;;;7283701;32;20120;-57
2023/03/16 09:04:20;;;;;;;7.50;3.42;;;6.40;99.90;;;;;;7286440;32;20477;-56
2023/03/16 09:08:22;;;;;;;6.12;3.78;;;6.50;99.90;;;;;;7278067;32;20116;-57
2023/03/16 09:12:23;;;;;;;6.62;3.45;;;6.60;99.90;;;;;;7277391;32;20745;-56
2023/03/16 09:16:25;;;;;;;7.30;3.90;;;6.60;99.90;;;;;;7283676;32;20173;-57
2023/03/16 09:20:27;;;;;;;10.68;3.55;;;6.50;99.90;;;;;;7272162;32;20143;-56
2023/03/16 09:24:36;;;;;;;6.12;3.75;;;6.60;99.90;;;;;;7279153;32;20218;-56
2023/03/16 09:28:40;;;;;;;8.18;4.05;;;6.60;99.90;;;;;;7276729;32;20436;-57
2023/03/16 09:32:42;;;;;;;5.65;3.53;;;6.90;99.90;;;;;;7274537;32;20249;-57
2023/03/16 09:36:44;;;;;;;7.18;4.03;;;6.90;99.90;;;;;;7279648;32;20120;-56
2023/03/16 09:41:00;;;;;;;5.18;3.62;;;7.20;99.90;;;;;;7279412;32;20258;-57
2023/03/16 09:45:25;;;;;;;6.53;3.50;;;7.50;99.90;;;;;;7278106;32;20208;-56
2023/03/16 09:49:34;;;;;;;6.72;3.72;;;7.60;99.90;;;;;;7279121;32;20157;-56
2023/03/16 09:53:38;;;;;;;6.60;3.47;;;7.70;99.90;;;;;;7272554;32;20235;-56
2023/03/16 09:57:43;;;;;;;4.50;3.47;;;7.90;99.90;;;;;;7276709;32;20474;-57
2023/03/16 10:02:04;;;;;;;5.80;3.67;;;8.10;99.90;;;;;;7282290;32;20250;-57
2023/03/16 10:06:11;;;;;;;5.75;4.18;;;8.20;99.90;;;;;;7281750;32;20426;-57
2023/03/16 10:10:13;;;;;;;6.32;3.90;;;8.40;99.90;;;;;;7271645;32;20128;-57
2023/03/16 10:15:00;;;;;;;6.50;3.47;;;8.50;99.90;;;;;;7283436;32;20126;-57
2023/03/16 10:19:08;;;;;;;6.10;3.62;;;8.50;99.90;;;;;;7276491;32;20814;-56
2023/03/16 10:23:21;;;;;;;7.07;3.40;;;8.60;99.90;;;;;;7278625;32;20285;-56
2023/03/16 10:27:30;;;;;;;5.37;3.45;;;8.60;99.90;;;;;;7274785;32;20270;-57
2023/03/16 10:31:34;;;;;;;5.93;3.53;;;8.50;99.90;;;;;;7281524;32;20174;-56
2023/03/16 10:35:52;;;;;;;4.57;2.97;;;8.40;99.90;;;;;;7278995;32;20539;-56
2023/03/16 10:39:55;;;;;;;4.72;3.15;;;8.50;99.90;;;;;;7278208;32;20130;-56
2023/03/16 10:43:57;;;;;;;8.95;3.80;;;8.60;99.90;;;;;;7281709;32;20154;-57
2023/03/16 10:48:07;;;;;;;5.22;3.45;;;8.90;99.90;;;;;;7273214;32;20526;-58
2023/03/16 10:52:33;;;;;;;5.50;3.12;;;9.60;99.90;;;;;;7271474;32;20111;-56
2023/03/16 10:56:36;;;;;;;6.03;3.00;;;10.00;99.90;;;;;;7269573;32;20291;-56
2023/03/16 11:00:42;;;;;;;5.85;3.10;;;10.10;99.90;;;;;;7277654;32;20131;-56
2023/03/16 11:04:44;;;;;;;6.30;3.30;;;10.20;99.90;;;;;;7273548;32;20537;-55
2023/03/16 11:08:47;;;;;;;5.95;3.22;;;10.50;99.90;;;;;;7278907;32;20175;-56
2023/03/16 11:12:50;;;;;;;6.28;2.80;;;10.80;99.90;;;;;;7276049;32;20100;-56
2023/03/16 11:17:48;;;;;;;4.60;3.05;;;10.60;99.90;;;;;;7276039;32;20179;-56
2023/03/16 11:22:32;;;;;;;7.07;2.92;;;10.80;99.90;;;;;;7187631;32;20181;-56
2023/03/16 11:26:36;;;;;;;5.25;2.90;;;11.20;99.90;;;;;;7242069;32;20180;-56
2023/03/16 11:30:46;;;;;;;3.80;2.30;;;11.50;99.90;;;;;;7277129;32;20112;-55
2023/03/16 11:34:48;;;;;;;4.70;2.53;;;12.00;99.90;;;;;;7274875;32;20168;-55
2023/03/16 11:39:04;;;;;;;7.00;2.67;;;13.30;99.90;;;;;;7272448;32;20117;-55
2023/03/16 11:43:24;;;;;;;4.78;3.08;;;14.50;99.20;;;;;;7286678;32;20099;-57
2023/03/16 11:47:59;;;;;;;3.95;2.55;;;14.70;94.80;;;;;;7277693;32;20112;-57
2023/03/16 11:52:41;;;;;;;4.47;2.30;;;14.30;93.50;;;;;;7283232;32;20111;-57
2023/03/16 11:56:53;;;;;;;5.25;2.47;;;15.20;91.80;;;;;;7281744;32;20213;-57
2023/03/16 12:01:07;;;;;;;3.55;2.12;;;15.50;87.30;;;;;;7276260;32;20211;-57
2023/03/16 12:05:36;;;;;;;3.22;2.08;;;15.50;84.50;;;;;;7276480;32;20257;-57
2023/03/16 12:09:59;;;;;;;3.53;2.00;;;15.30;83.80;;;;;;7279231;32;20559;-57
2023/03/16 12:14:19;;;;;;;4.95;2.20;;;15.10;84.20;;;;;;7282588;32;20234;-57
2023/03/16 12:18:41;;;;;;;4.43;1.90;;;14.90;88.30;;;;;;7277152;32;20130;-57
2023/03/16 12:23:12;;;;;;;5.32;2.10;;;14.30;87.30;;;;;;7277092;32;20611;-56
2023/03/16 12:27:35;;;;;;;7.93;2.10;;;12.90;91.90;;;;;;7255845;32;20221;-56
2023/03/16 12:31:49;;;;;;;2.53;1.33;;;12.50;94.00;;;;;;7277528;32;20432;-56
2023/03/16 12:36:01;;;;;;;4.28;1.62;;;11.80;95.70;;;;;;7276736;32;20812;-56
2023/03/16 12:40:22;;;;;;;4.37;1.87;;;11.50;96.20;;;;;;7278234;32;20195;-56
2023/03/16 12:44:55;;;;;;;3.55;1.62;;;11.30;97.00;;;;;;7276338;32;20727;-55
2023/03/16 12:49:00;;;;;;;4.07;1.65;;;11.30;99.10;;;;;;7284511;32;20283;-55
2023/03/16 12:53:04;;;;;;;5.47;1.80;;;11.30;98.10;;;;;;7279858;32;20838;-56
2023/03/16 12:57:08;;;;;;;3.42;1.58;;;11.30;98.60;;;;;;7276595;32;20199;-56
2023/03/16 13:01:12;;;;;;;6.72;1.50;;;11.40;99.30;;;;;;7277900;32;20181;-56
2023/03/16 13:05:17;;;;;;;4.50;1.60;;;11.50;99.40;;;;;;7280395;32;20222;-59
2023/03/16 13:09:24;;;;;;;2.75;1.30;;;11.60;99.20;;;;;;7283875;32;20668;-56
2023/03/16 13:13:27;;;;;;;4.40;1.50;;;11.70;99.80;;;;;;7282924;32;20139;-56
2023/03/16 13:17:33;;;;;;;3.65;1.40;;;12.00;99.90;;;;;;7278975;32;20136;-56
2023/03/16 13:21:40;;;;;;;3.33;1.48;;;12.40;96.70;;;;;;7274411;32;20120;-56
2023/03/16 13:26:03;;;;;;;2.35;1.40;;;13.10;95.60;;;;;;7278369;32;20168;-58
2023/03/16 13:30:28;;;;;;;2.72;1.20;;;14.10;94.00;;;;;;7265380;32;20154;-56
2023/03/16 13:34:46;;;;;;;3.03;1.30;;;15.40;91.00;;;;;;7276282;32;20236;-58
2023/03/16 13:39:21;;;;;;;5.22;1.70;;;16.40;88.30;;;;;;7279093;32;20183;-57
2023/03/16 13:43:28;;;;;;;3.25;1.45;;;17.00;79.70;;;;;;7284187;32;20213;-56
2023/03/16 13:47:30;;;;;;;2.97;1.10;;;17.30;76.30;;;;;;7274716;32;20263;-57
2023/03/16 13:51:35;;;;;;;5.70;1.40;;;17.70;73.70;;;;;;7281969;32;20104;-57
2023/03/16 13:55:37;;;;;;;5.75;1.30;;;17.80;71.90;;;;;;7275042;32;20108;-56
2023/03/16 13:59:42;;;;;;;3.92;1.10;;;17.30;72.40;;;;;;7275007;32;20283;-56
2023/03/16 14:03:44;;;;;;;2.67;1.10;;;18.20;70.20;;;;;;7272750;32;20557;-55
2023/03/16 14:07:47;;;;;;;3.53;1.50;;;17.60;68.70;;;;;;7278591;32;20195;-56
2023/03/16 14:11:49;;;;;;;2.55;1.10;;;17.20;68.80;;;;;;7276641;32;20254;-57
2023/03/16 14:16:13;;;;;;;2.22;1.10;;;18.00;67.30;;;;;;7276128;32;20123;-56
2023/03/16 14:20:22;;;;;;;3.00;1.00;;;18.40;65.60;;;;;;7281074;32;20748;-56
2023/03/16 14:24:33;;;;;;;2.75;1.20;;;18.20;63.70;;;;;;7279967;32;20485;-56
2023/03/16 14:28:35;;;;;;;3.15;1.45;;;17.40;65.90;;;;;;7276797;32;20627;-56
2023/03/16 14:32:37;;;;;;;2.78;1.10;;;17.40;65.30;;;;;;7273650;32;20213;-56
2023/03/16 14:36:38;;;;;;;4.37;1.00;;;17.00;66.40;;;;;;7280218;32;20525;-56
2023/03/16 14:40:55;;;;;;;2.78;1.10;;;16.80;66.50;;;;;;7277427;32;20134;-56
2023/03/16 14:44:59;;;;;;;2.12;1.10;;;16.40;68.50;;;;;;7277186;32;20112;-55
2023/03/16 14:49:35;;;;;;;1.58;0.70;;;15.80;69.00;;;;;;7277861;32;20167;-56
2023/03/16 14:53:37;;;;;;;2.67;0.98;;;15.00;71.80;;;;;;7245515;32;20132;-56
2023/03/16 14:57:40;;;;;;;3.10;1.10;;;14.50;75.40;;;;;;7275344;32;20498;-56
2023/03/16 15:01:43;;;;;;;3.17;1.02;;;13.90;79.10;;;;;;7276315;32;20208;-56
2023/03/16 15:05:48;;;;;;;2.87;0.90;;;13.40;80.30;;;;;;7278413;32;20138;-56
2023/03/16 15:09:52;;;;;;;7.93;1.40;;;13.20;82.30;;;;;;7275848;32;20197;-57
2023/03/16 15:14:03;;;;;;;3.30;1.10;;;13.00;83.50;;;;;;7274030;32;20945;-56
2023/03/16 15:18:04;;;;;;;2.78;1.10;;;12.90;86.20;;;;;;7280022;32;20515;-56
2023/03/16 15:22:10;;;;;;;2.05;1.00;;;12.70;86.70;;;;;;7278104;32;20135;-56
2023/03/16 15:26:14;;;;;;;3.85;0.93;;;12.60;88.20;;;;;;7273386;32;20138;-56
2023/03/16 15:30:27;;;;;;;1.58;0.90;;;12.60;89.80;;;;;;7271224;32;21581;-56
2023/03/16 15:34:29;;;;;;;1.77;0.82;;;12.60;90.70;;;;;;7271432;32;20522;-57
2023/03/16 15:38:35;;;;;;;2.42;0.90;;;12.50;89.20;;;;;;7276003;32;20530;-57
2023/03/16 15:42:36;;;;;;;1.75;0.90;;;12.50;90.20;;;;;;7274136;32;20173;-56
2023/03/16 15:46:38;;;;;;;3.08;1.00;;;12.30;90.70;;;;;;7276518;32;20991;-58
2023/03/16 15:50:44;;;;;;;2.90;1.20;;;12.10;91.00;;;;;;7257584;32;20136;-57
2023/03/16 15:54:47;;;;;;;4.60;1.00;;;12.10;92.00;;;;;;7276161;32;20108;-56
2023/03/16 15:58:49;;;;;;;2.25;0.90;;;12.00;91.90;;;;;;7271794;32;20466;-57
2023/03/16 16:02:51;;;;;;;2.25;1.17;;;11.90;91.50;;;;;;7277327;32;20136;-57
2023/03/16 16:06:54;;;;;;;2.25;0.93;;;11.80;92.50;;;;;;7272526;32;20784;-57
2023/03/16 16:10:56;;;;;;;2.97;1.10;;;11.70;92.90;;;;;;7274920;32;20169;-57
2023/03/16 16:14:57;;;;;;;3.53;1.05;;;11.70;93.70;;;;;;7276164;32;20617;-56
2023/03/16 16:18:59;;;;;;;2.78;0.98;;;11.60;93.90;;;;;;7274402;32;20259;-57
2023/03/16 16:23:02;;;;;;;3.62;1.20;;;11.40;94.30;;;;;;7268636;32;20350;-57
2023/03/16 16:27:05;;;;;;;3.03;1.25;;;11.30;93.90;;;;;;7279996;32;20650;-56
2023/03/16 16:31:12;;;;;;;2.70;1.20;;;11.30;94.60;;;;;;7279988;32;20108;-56
2023/03/16 16:35:19;;;;;;;3.45;1.37;;;11.20;95.50;;;;;;7277467;32;20162;-56
2023/03/16 16:39:22;;;;;;;2.28;1.23;;;11.20;95.60;;;;;;7280067;32;20128;-57
2023/03/16 16:43:40;;;;;;;3.03;1.23;;;11.20;95.90;;;;;;7280024;32;20203;-56
2023/03/16 16:47:42;;;;;;;3.17;1.48;;;11.20;96.30;;;;;;7275364;32;21802;-56
2023/03/16 16:51:44;;;;;;;4.62;1.20;;;11.10;96.80;;;;;;7273002;32;20138;-56
2023/03/16 16:55:47;;;;;;;3.92;1.52;;;11.00;97.60;;;;;;7275002;32;20130;-56
2023/03/16 16:59:49;;;;;;;4.47;1.20;;;11.00;98.30;;;;;;7288448;32;20134;-57
2023/03/16 17:03:51;;;;;;;2.78;1.50;;;10.80;99.80;;;;;;7282342;32;20122;-56
2023/03/16 17:07:53;;;;;;;3.65;1.35;;;10.70;99.20;;;;;;7281569;32;20116;-56
2023/03/16 17:11:58;;;;;;;4.15;1.50;;;10.60;99.90;;;;;;7290289;32;20739;-57
2023/03/16 17:16:00;;;;;;;3.12;1.60;;;10.50;99.90;;;;;;7286961;32;20147;-56
2023/03/16 17:20:04;;;;;;;4.40;1.70;;;10.40;99.90;;;;;;7281714;32;20194;-56
2023/03/16 17:24:06;;;;;;;4.97;1.87;;;10.30;99.90;;;;;;7276880;32;20124;-56
2023/03/16 17:28:08;;;;;;;3.80;1.77;;;10.20;99.90;;;;;;7281700;32;20418;-56
2023/03/16 17:32:21;;;;;;;4.97;2.00;;;10.20;99.90;;;;;;7285397;32;20122;-57
2023/03/16 17:36:23;;;;;;;7.50;2.70;;;10.00;99.90;;;;;;7282588;32;20563;-56
2023/03/16 17:40:25;;;;;;;6.00;2.00;;;10.00;99.90;;;;;;7281441;32;20118;-56
2023/03/16 17:44:32;;;;;;;3.45;2.03;;;9.90;99.90;;;;;;7280265;32;20191;-56
2023/03/16 17:48:34;;;;;;;5.22;1.77;;;9.80;99.90;;;;;;7278370;32;20124;-56
2023/03/16 17:52:36;;;;;;;2.87;1.95;;;9.80;99.90;;;;;;7280090;32;20131;-56
2023/03/16 17:56:39;;;;;;;4.20;2.62;;;9.80;99.90;;;;;;7286507;32;20130;-56
2023/03/16 18:00:45;;;;;;;6.32;2.85;;;9.70;99.90;;;;;;7289227;32;20130;-56
2023/03/16 18:04:47;;;;;;;4.68;2.33;;;9.70;99.90;;;;;;7274895;32;20134;-56
2023/03/16 18:08:49;;;;;;;6.00;3.10;;;9.60;99.90;;;;;;7273734;32;20172;-57
2023/03/16 18:13:04;;;;;;;4.95;2.70;;;9.60;99.90;;;;;;7279020;32;20133;-55
2023/03/16 18:17:31;;;;;;;3.35;1.80;;;9.60;99.90;;;;;;7277879;32;20276;-55
2023/03/16 18:21:35;;;;;;;3.47;1.90;;;9.60;99.90;;;;;;7278900;32;20204;-56
2023/03/16 18:25:40;;;;;;;4.60;1.85;;;9.50;99.90;;;;;;7274029;32;20233;-56
2023/03/16 18:29:43;;;;;;;4.70;1.90;;;9.40;99.90;;;;;;7273945;32;20222;-56
2023/03/16 18:33:48;;;;;;;5.45;2.10;;;9.40;99.90;;;;;;7274575;32;20202;-56
2023/03/16 18:37:49;;;;;;;3.70;2.10;;;9.40;99.90;;;;;;7272910;32;20157;-57
2023/03/16 18:41:51;;;;;;;2.70;1.67;;;9.40;99.90;;;;;;7278062;32;20173;-56
2023/03/16 18:45:54;;;;;;;3.92;1.85;;;9.40;99.90;;;;;;7274596;32;20326;-56
2023/03/16 18:49:56;;;;;;;3.85;1.60;;;9.60;99.90;;;;;;7274334;32;20647;-56
2023/03/16 18:53:58;;;;;;;4.40;1.80;;;9.70;99.90;;;;;;7271875;32;20104;-56
2023/03/16 18:58:00;;;;;;;6.80;2.58;;;9.80;99.90;;;;;;7276149;32;20150;-57
2023/03/16 19:02:02;;;;;;;4.85;1.70;;;9.60;99.90;;;;;;7273762;32;20130;-57
2023/03/16 19:06:05;;;;;;;3.33;1.70;;;9.40;99.90;;;;;;7273726;32;20416;-56
2023/03/16 19:10:31;;;;;;;3.03;1.30;;;9.30;99.90;;;;;;7278414;32;20116;-57
2023/03/16 19:14:33;;;;;;;3.67;1.50;;;9.30;99.90;;;;;;7277417;32;20104;-57
2023/03/16 19:22:45;;;;;;;3.90;1.58;;;9.10;99.90;;;;;;7275499;32;20190;-57
2023/03/16 19:26:47;;;;;;;5.22;1.77;;;9.00;99.90;;;;;;7270380;32;22229;-57
2023/03/16 19:30:49;;;;;;;4.07;1.80;;;9.00;99.90;;;;;;7277674;32;20116;-57
2023/03/16 19:34:51;;;;;;;3.35;1.58;;;8.90;99.90;;;;;;7277026;32;20134;-57
2023/03/16 19:38:53;;;;;;;4.47;1.55;;;8.90;99.90;;;;;;7275635;32;20111;-56
2023/03/16 19:42:55;;;;;;;3.70;1.70;;;8.90;99.90;;;;;;7277814;32;20130;-56
2023/03/16 19:46:58;;;;;;;3.80;1.73;;;8.90;99.90;;;;;;7274384;32;20166;-56
2023/03/16 19:51:01;;;;;;;2.78;1.77;;;8.80;99.90;;;;;;7276532;32;20107;-57
2023/03/16 19:55:03;;;;;;;3.05;2.10;;;8.80;99.90;;;;;;7271216;32;20621;-56
2023/03/16 19:59:04;;;;;;;2.92;1.90;;;8.80;99.90;;;;;;7276356;32;20242;-56
2023/03/16 20:03:11;;;;;;;3.28;1.60;;;8.80;99.90;;;;;;7275164;32;21179;-56
2023/03/16 20:07:16;;;;;;;4.57;2.33;;;8.80;99.90;;;;;;7279054;32;20128;-57
2023/03/16 20:11:29;;;;;;;3.53;1.80;;;8.60;99.90;;;;;;7282829;32;20844;-57
2023/03/16 20:15:32;;;;;;;3.72;2.00;;;8.60;99.90;;;;;;7280318;32;20132;-56
2023/03/16 20:19:34;;;;;;;4.32;2.00;;;8.60;99.90;;;;;;7279376;32;20141;-57
2023/03/16 20:23:36;;;;;;;4.20;2.00;;;8.60;99.90;;;;;;7283635;32;20759;-57
2023/03/16 20:27:38;;;;;;;5.78;2.12;;;8.50;99.90;;;;;;7274098;32;20227;-56
2023/03/16 20:31:41;;;;;;;3.10;1.83;;;8.60;99.90;;;;;;7280228;32;20283;-56
2023/03/16 20:35:43;;;;;;;4.18;2.00;;;8.60;99.90;;;;;;7277847;32;20217;-57
2023/03/16 20:39:44;;;;;;;3.83;2.12;;;8.50;99.90;;;;;;7283302;32;20297;-56
2023/03/16 20:43:46;;;;;;;4.25;1.87;;;8.50;99.90;;;;;;7279376;32;20202;-57
2023/03/16 20:47:49;;;;;;;5.47;2.37;;;8.50;99.90;;;;;;7282207;32;20536;-57
2023/03/16 20:51:52;;;;;;;4.57;2.50;;;8.50;99.90;;;;;;7280468;32;20115;-57
2023/03/16 20:55:55;;;;;;;4.37;2.20;;;8.50;99.90;;;;;;7280930;32;20138;-57
2023/03/16 20:59:56;;;;;;;5.43;2.70;;;8.50;99.90;;;;;;7282849;32;20652;-56
2023/03/16 21:03:58;;;;;;;5.55;2.08;;;8.40;99.90;;;;;;7277903;32;20175;-57
2023/03/16 21:08:00;;;;;;;4.32;2.45;;;8.50;99.90;;;;;;7271025;32;20112;-57
2023/03/16 21:12:02;;;;;;;3.08;2.40;;;8.40;99.90;;;;;;7279615;32;20138;-57
2023/03/16 21:16:04;;;;;;;5.75;2.17;;;8.40;99.90;;;;;;7276532;32;20745;-56
2023/03/16 21:20:17;;;;;;;3.72;2.40;;;8.40;99.90;;;;;;7280049;32;20234;-56
2023/03/16 21:24:20;;;;;;;4.25;2.65;;;8.50;99.90;;;;;;7279485;32;20462;-57
2023/03/16 21:28:24;;;;;;;3.95;2.10;;;8.50;99.90;;;;;;7281041;32;20518;-57
2023/03/16 21:32:27;;;;;;;4.57;2.10;;;8.40;99.90;;;;;;7278878;32;20163;-56